sensor_id;sensor_type;location;lat;lon;timestamp;pressure;altitude;pressure_sealevel;temperature;humidity
24858;BME280;12935;50.782;6.074;2024-03-02T00:02:54;97864.59;;;9.19;92.64
24858;BME280;12935;50.782;6.074;2024-03-02T00:05:22;97865.44;;;9.15;93.51
24858;BME280;12935;50.782;6.074;2024-03-02T00:07:55;97869.28;;;9.18;93.20
24858;BME280;12935;50.782;6.074;2024-03-02T00:10:24;97870.38;;;9.21;93.21
24858;BME280;12935;50.782;6.074;2024-03-02T00:12:53;97873.53;;;9.19;93.36
24858;BME280;12935;50.782;6.074;2024-03-02T00:18:34;97880.88;;;9.22;93.47
24858;BME280;12935;50.782;6.074;2024-03-02T00:21:00;97886.47;;;9.15;93.57
24858;BME280;12935;50.782;6.074;2024-03-02T00:23:33;97878.56;;;9.21;93.80
24858;BME280;12935;50.782;6.074;2024-03-02T00:25:58;97891.28;;;9.27;93.71
24858;BME280;12935;50.782;6.074;2024-03-02T00:28:34;97886.59;;;9.28;93.68
24858;BME280;12935;50.782;6.074;2024-03-02T00:31:11;97873.47;;;9.23;93.31
24858;BME280;12935;50.782;6.074;2024-03-02T00:33:41;97886.00;;;9.36;93.39
24858;BME280;12935;50.782;6.074;2024-03-02T00:36:07;97874.47;;;9.29;92.85
24858;BME280;12935;50.782;6.074;2024-03-02T00:38:34;97882.16;;;9.34;92.74
24858;BME280;12935;50.782;6.074;2024-03-02T00:41:06;97883.69;;;9.35;92.66
24858;BME280;12935;50.782;6.074;2024-03-02T00:46:11;97883.63;;;9.38;92.46
24858;BME280;12935;50.782;6.074;2024-03-02T00:48:36;97862.22;;;9.37;93.19
24858;BME280;12935;50.782;6.074;2024-03-02T00:51:03;97870.34;;;9.40;92.68
24858;BME280;12935;50.782;6.074;2024-03-02T00:53:29;97870.25;;;9.44;92.68
24858;BME280;12935;50.782;6.074;2024-03-02T00:55:55;97878.31;;;9.47;92.46
24858;BME280;12935;50.782;6.074;2024-03-02T00:58:20;97881.16;;;9.44;92.54
24858;BME280;12935;50.782;6.074;2024-03-02T01:00:46;97890.63;;;9.56;92.56
24858;BME280;12935;50.782;6.074;2024-03-02T01:03:11;97883.28;;;9.53;92.32
24858;BME280;12935;50.782;6.074;2024-03-02T01:05:41;97899.63;;;9.53;92.45
24858;BME280;12935;50.782;6.074;2024-03-02T01:08:07;97898.09;;;9.52;92.40
24858;BME280;12935;50.782;6.074;2024-03-02T01:10:32;97908.31;;;9.47;93.05
24858;BME280;12935;50.782;6.074;2024-03-02T01:12:57;97897.84;;;9.46;92.79
24858;BME280;12935;50.782;6.074;2024-03-02T01:15:22;97898.19;;;9.48;92.94
24858;BME280;12935;50.782;6.074;2024-03-02T01:17:48;97900.06;;;9.51;92.81
24858;BME280;12935;50.782;6.074;2024-03-02T01:20:13;97909.00;;;9.52;92.29
24858;BME280;12935;50.782;6.074;2024-03-02T01:22:38;97916.75;;;9.53;93.23
24858;BME280;12935;50.782;6.074;2024-03-02T01:25:04;97916.41;;;9.51;93.27
24858;BME280;12935;50.782;6.074;2024-03-02T01:27:29;97941.31;;;9.53;93.85
24858;BME280;12935;50.782;6.074;2024-03-02T01:29:54;97932.34;;;9.53;94.33
24858;BME280;12935;50.782;6.074;2024-03-02T01:32:20;97926.06;;;9.56;94.15
24858;BME280;12935;50.782;6.074;2024-03-02T01:34:45;97915.91;;;9.40;95.52
24858;BME280;12935;50.782;6.074;2024-03-02T01:37:10;97931.06;;;9.41;96.69
24858;BME280;12935;50.782;6.074;2024-03-02T01:39:36;97932.84;;;9.47;96.46
24858;BME280;12935;50.782;6.074;2024-03-02T01:42:01;97944.28;;;9.42;97.04
24858;BME280;12935;50.782;6.074;2024-03-02T01:44:26;97940.94;;;9.35;98.50
24858;BME280;12935;50.782;6.074;2024-03-02T01:46:52;97951.59;;;9.09;100.00
24858;BME280;12935;50.782;6.074;2024-03-02T01:49:17;97940.00;;;9.05;100.00
24858;BME280;12935;50.782;6.074;2024-03-02T01:51:43;97941.69;;;8.99;100.00
24858;BME280;12935;50.782;6.074;2024-03-02T01:54:09;97938.13;;;8.83;100.00
24858;BME280;12935;50.782;6.074;2024-03-02T01:56:34;97946.50;;;8.72;100.00
24858;BME280;12935;50.782;6.074;2024-03-02T01:58:59;97949.44;;;8.61;100.00
24858;BME280;12935;50.782;6.074;2024-03-02T02:01:24;97965.84;;;8.58;100.00
24858;BME280;12935;50.782;6.074;2024-03-02T02:03:50;97959.25;;;8.35;100.00
24858;BME280;12935;50.782;6.074;2024-03-02T02:06:15;97966.84;;;8.21;100.00
24858;BME280;12935;50.782;6.074;2024-03-02T02:08:40;97962.44;;;8.07;100.00
24858;BME280;12935;50.782;6.074;2024-03-02T02:11:06;97972.19;;;7.81;100.00
24858;BME280;12935;50.782;6.074;2024-03-02T02:13:31;97962.72;;;7.89;100.00
24858;BME280;12935;50.782;6.074;2024-03-02T02:16:05;97957.53;;;7.98;100.00
24858;BME280;12935;50.782;6.074;2024-03-02T02:18:30;97955.22;;;7.97;100.00
24858;BME280;12935;50.782;6.074;2024-03-02T02:20:55;97953.59;;;7.76;100.00
24858;BME280;12935;50.782;6.074;2024-03-02T02:23:20;97953.97;;;7.78;100.00
24858;BME280;12935;50.782;6.074;2024-03-02T02:25:46;97952.38;;;7.81;100.00
24858;BME280;12935;50.782;6.074;2024-03-02T02:28:11;97959.44;;;7.74;100.00
24858;BME280;12935;50.782;6.074;2024-03-02T02:30:36;97952.66;;;7.63;100.00
24858;BME280;12935;50.782;6.074;2024-03-02T02:33:02;97959.88;;;7.46;100.00
24858;BME280;12935;50.782;6.074;2024-03-02T02:35:27;97959.63;;;7.37;100.00
24858;BME280;12935;50.782;6.074;2024-03-02T02:37:55;97953.88;;;7.31;100.00
24858;BME280;12935;50.782;6.074;2024-03-02T02:40:21;97964.94;;;7.44;100.00
24858;BME280;12935;50.782;6.074;2024-03-02T02:42:46;97957.59;;;7.41;100.00
24858;BME280;12935;50.782;6.074;2024-03-02T02:45:12;97944.59;;;7.56;100.00
24858;BME280;12935;50.782;6.074;2024-03-02T02:47:39;97946.75;;;7.68;100.00
24858;BME280;12935;50.782;6.074;2024-03-02T02:50:06;97950.53;;;7.74;100.00
24858;BME280;12935;50.782;6.074;2024-03-02T02:52:36;97944.28;;;7.77;100.00
24858;BME280;12935;50.782;6.074;2024-03-02T02:55:04;97950.06;;;7.79;100.00
24858;BME280;12935;50.782;6.074;2024-03-02T02:57:29;97950.38;;;7.85;100.00
24858;BME280;12935;50.782;6.074;2024-03-02T03:00:00;97942.69;;;7.80;100.00
24858;BME280;12935;50.782;6.074;2024-03-02T03:02:27;97945.22;;;7.67;100.00
24858;BME280;12935;50.782;6.074;2024-03-02T03:04:53;97952.94;;;7.42;100.00
24858;BME280;12935;50.782;6.074;2024-03-02T03:07:18;97933.44;;;7.50;100.00
24858;BME280;12935;50.782;6.074;2024-03-02T03:09:43;97937.47;;;7.65;100.00
24858;BME280;12935;50.782;6.074;2024-03-02T03:12:08;97931.25;;;7.65;100.00
24858;BME280;12935;50.782;6.074;2024-03-02T03:14:34;97915.31;;;7.67;100.00
24858;BME280;12935;50.782;6.074;2024-03-02T03:16:59;97908.91;;;7.54;100.00
24858;BME280;12935;50.782;6.074;2024-03-02T03:19:25;97907.06;;;7.47;100.00
24858;BME280;12935;50.782;6.074;2024-03-02T03:21:50;97925.56;;;7.56;100.00
24858;BME280;12935;50.782;6.074;2024-03-02T03:24:15;97908.16;;;7.53;100.00
24858;BME280;12935;50.782;6.074;2024-03-02T03:26:40;97908.06;;;7.57;100.00
24858;BME280;12935;50.782;6.074;2024-03-02T03:29:05;97903.53;;;7.50;100.00
24858;BME280;12935;50.782;6.074;2024-03-02T03:31:31;97898.38;;;7.56;100.00
24858;BME280;12935;50.782;6.074;2024-03-02T03:33:56;97898.75;;;7.58;100.00
24858;BME280;12935;50.782;6.074;2024-03-02T03:36:22;97911.69;;;7.50;100.00
24858;BME280;12935;50.782;6.074;2024-03-02T03:38:48;97902.41;;;7.48;100.00
24858;BME280;12935;50.782;6.074;2024-03-02T03:41:13;97911.72;;;7.47;100.00
24858;BME280;12935;50.782;6.074;2024-03-02T03:43:38;97913.28;;;7.48;100.00
24858;BME280;12935;50.782;6.074;2024-03-02T03:46:04;97907.38;;;7.53;100.00
24858;BME280;12935;50.782;6.074;2024-03-02T03:48:29;97905.47;;;7.50;100.00
24858;BME280;12935;50.782;6.074;2024-03-02T03:50:56;97899.31;;;7.46;100.00
24858;BME280;12935;50.782;6.074;2024-03-02T03:53:22;97914.09;;;7.45;100.00
24858;BME280;12935;50.782;6.074;2024-03-02T03:55:47;97922.91;;;7.52;100.00
24858;BME280;12935;50.782;6.074;2024-03-02T03:58:14;97904.59;;;7.56;100.00
24858;BME280;12935;50.782;6.074;2024-03-02T04:00:41;97898.06;;;7.54;100.00
24858;BME280;12935;50.782;6.074;2024-03-02T04:03:07;97909.63;;;7.58;100.00
24858;BME280;12935;50.782;6.074;2024-03-02T04:05:32;97917.72;;;7.61;100.00
24858;BME280;12935;50.782;6.074;2024-03-02T04:07:57;97920.13;;;7.56;100.00
24858;BME280;12935;50.782;6.074;2024-03-02T04:10:22;97909.47;;;7.42;100.00
24858;BME280;12935;50.782;6.074;2024-03-02T04:12:49;97909.97;;;7.60;100.00
24858;BME280;12935;50.782;6.074;2024-03-02T04:15:15;97901.81;;;7.60;100.00
24858;BME280;12935;50.782;6.074;2024-03-02T04:17:40;97902.19;;;7.62;100.00
24858;BME280;12935;50.782;6.074;2024-03-02T04:20:06;97904.31;;;7.51;100.00
24858;BME280;12935;50.782;6.074;2024-03-02T04:22:33;97913.41;;;7.64;100.00
24858;BME280;12935;50.782;6.074;2024-03-02T04:24:59;97912.66;;;7.63;100.00
24858;BME280;12935;50.782;6.074;2024-03-02T04:27:24;97922.69;;;7.66;100.00
24858;BME280;12935;50.782;6.074;2024-03-02T04:29:49;97921.03;;;7.72;100.00
24858;BME280;12935;50.782;6.074;2024-03-02T04:32:15;97914.78;;;7.75;100.00
24858;BME280;12935;50.782;6.074;2024-03-02T04:34:40;97918.66;;;7.74;100.00
24858;BME280;12935;50.782;6.074;2024-03-02T04:37:05;97912.06;;;7.75;100.00
24858;BME280;12935;50.782;6.074;2024-03-02T04:39:31;97920.94;;;7.80;100.00
24858;BME280;12935;50.782;6.074;2024-03-02T04:41:56;97924.41;;;7.80;100.00
24858;BME280;12935;50.782;6.074;2024-03-02T04:44:21;97919.75;;;7.81;100.00
24858;BME280;12935;50.782;6.074;2024-03-02T04:46:46;97928.69;;;7.81;100.00
24858;BME280;12935;50.782;6.074;2024-03-02T04:49:12;97940.00;;;7.76;100.00
24858;BME280;12935;50.782;6.074;2024-03-02T04:51:37;97927.91;;;7.81;100.00
24858;BME280;12935;50.782;6.074;2024-03-02T04:54:02;97935.69;;;7.79;100.00
24858;BME280;12935;50.782;6.074;2024-03-02T04:56:28;97926.00;;;7.78;100.00
24858;BME280;12935;50.782;6.074;2024-03-02T04:58:56;97928.72;;;7.78;100.00
24858;BME280;12935;50.782;6.074;2024-03-02T05:01:21;97922.06;;;7.82;100.00
24858;BME280;12935;50.782;6.074;2024-03-02T05:03:46;97924.41;;;7.80;100.00
24858;BME280;12935;50.782;6.074;2024-03-02T05:06:12;97936.00;;;7.84;100.00
24858;BME280;12935;50.782;6.074;2024-03-02T05:08:37;97942.91;;;7.89;100.00
24858;BME280;12935;50.782;6.074;2024-03-02T05:11:02;97930.09;;;7.89;100.00
24858;BME280;12935;50.782;6.074;2024-03-02T05:13:46;97948.00;;;7.87;100.00
24858;BME280;12935;50.782;6.074;2024-03-02T05:16:12;97930.56;;;7.84;100.00
24858;BME280;12935;50.782;6.074;2024-03-02T05:18:37;97944.84;;;7.88;100.00
24858;BME280;12935;50.782;6.074;2024-03-02T05:21:03;97950.78;;;7.83;100.00
24858;BME280;12935;50.782;6.074;2024-03-02T05:23:28;97937.69;;;7.74;100.00
24858;BME280;12935;50.782;6.074;2024-03-02T05:25:54;97939.56;;;7.81;100.00
24858;BME280;12935;50.782;6.074;2024-03-02T05:28:19;97946.53;;;7.82;100.00
24858;BME280;12935;50.782;6.074;2024-03-02T05:30:44;97934.84;;;7.85;100.00
24858;BME280;12935;50.782;6.074;2024-03-02T05:33:09;97936.06;;;7.81;100.00
24858;BME280;12935;50.782;6.074;2024-03-02T05:35:35;97950.13;;;7.75;100.00
24858;BME280;12935;50.782;6.074;2024-03-02T05:38:00;97944.31;;;7.73;100.00
24858;BME280;12935;50.782;6.074;2024-03-02T05:40:25;97940.00;;;7.76;100.00
24858;BME280;12935;50.782;6.074;2024-03-02T05:42:50;97949.38;;;7.71;100.00
24858;BME280;12935;50.782;6.074;2024-03-02T05:45:16;97953.19;;;7.78;100.00
24858;BME280;12935;50.782;6.074;2024-03-02T05:47:41;97954.38;;;7.77;100.00
24858;BME280;12935;50.782;6.074;2024-03-02T05:50:07;97947.41;;;7.75;100.00
24858;BME280;12935;50.782;6.074;2024-03-02T05:52:32;97954.31;;;7.80;100.00
24858;BME280;12935;50.782;6.074;2024-03-02T05:54:57;97948.13;;;7.80;100.00
24858;BME280;12935;50.782;6.074;2024-03-02T05:57:23;97947.75;;;7.78;100.00
24858;BME280;12935;50.782;6.074;2024-03-02T06:00:04;97943.50;;;7.77;100.00
24858;BME280;12935;50.782;6.074;2024-03-02T06:02:33;97952.06;;;7.75;100.00
24858;BME280;12935;50.782;6.074;2024-03-02T06:04:58;97955.56;;;7.75;100.00
24858;BME280;12935;50.782;6.074;2024-03-02T06:07:23;97954.38;;;7.77;100.00
24858;BME280;12935;50.782;6.074;2024-03-02T06:09:48;97956.03;;;7.70;100.00
24858;BME280;12935;50.782;6.074;2024-03-02T06:12:16;97960.25;;;7.71;100.00
24858;BME280;12935;50.782;6.074;2024-03-02T06:14:41;97963.06;;;7.68;100.00
24858;BME280;12935;50.782;6.074;2024-03-02T06:17:06;97960.69;;;7.70;100.00
24858;BME280;12935;50.782;6.074;2024-03-02T06:19:32;97968.41;;;7.71;100.00
24858;BME280;12935;50.782;6.074;2024-03-02T06:21:57;97965.69;;;7.71;100.00
24858;BME280;12935;50.782;6.074;2024-03-02T06:24:22;97967.25;;;7.72;100.00
24858;BME280;12935;50.782;6.074;2024-03-02T06:26:47;97960.69;;;7.70;100.00
24858;BME280;12935;50.782;6.074;2024-03-02T06:29:13;97968.50;;;7.68;100.00
24858;BME280;12935;50.782;6.074;2024-03-02T06:31:38;97963.06;;;7.68;100.00
24858;BME280;12935;50.782;6.074;2024-03-02T06:34:03;97972.34;;;7.70;100.00
24858;BME280;12935;50.782;6.074;2024-03-02T06:36:29;97982.09;;;7.68;100.00
24858;BME280;12935;50.782;6.074;2024-03-02T06:38:55;97987.88;;;7.70;100.00
24858;BME280;12935;50.782;6.074;2024-03-02T06:41:20;97989.84;;;7.69;100.00
24858;BME280;12935;50.782;6.074;2024-03-02T06:43:45;97975.97;;;7.60;100.00
24858;BME280;12935;50.782;6.074;2024-03-02T06:46:10;97995.19;;;7.73;100.00
24858;BME280;12935;50.782;6.074;2024-03-02T06:48:39;97988.22;;;7.72;100.00
24858;BME280;12935;50.782;6.074;2024-03-02T06:51:05;97986.00;;;7.67;100.00
24858;BME280;12935;50.782;6.074;2024-03-02T06:53:30;97982.38;;;7.73;100.00
24858;BME280;12935;50.782;6.074;2024-03-02T06:55:56;97989.06;;;7.69;100.00
24858;BME280;12935;50.782;6.074;2024-03-02T06:58:22;97998.81;;;7.66;100.00
24858;BME280;12935;50.782;6.074;2024-03-02T07:00:47;98005.47;;;7.62;100.00
24858;BME280;12935;50.782;6.074;2024-03-02T07:03:16;98015.56;;;7.61;100.00
24858;BME280;12935;50.782;6.074;2024-03-02T07:05:41;98012.19;;;7.54;100.00
24858;BME280;12935;50.782;6.074;2024-03-02T07:08:07;98012.59;;;7.52;100.00
24858;BME280;12935;50.782;6.074;2024-03-02T07:10:32;98001.41;;;7.47;100.00
24858;BME280;12935;50.782;6.074;2024-03-02T07:12:57;98024.25;;;7.53;100.00
24858;BME280;12935;50.782;6.074;2024-03-02T07:15:22;98013.41;;;7.49;100.00
24858;BME280;12935;50.782;6.074;2024-03-02T07:18:06;98019.63;;;7.50;100.00
24858;BME280;12935;50.782;6.074;2024-03-02T07:20:32;98022.66;;;7.55;100.00
24858;BME280;12935;50.782;6.074;2024-03-02T07:22:57;98013.66;;;7.58;100.00
24858;BME280;12935;50.782;6.074;2024-03-02T07:25:22;98016.38;;;7.58;100.00
24858;BME280;12935;50.782;6.074;2024-03-02T07:27:47;98024.44;;;7.65;100.00
24858;BME280;12935;50.782;6.074;2024-03-02T07:30:16;98025.25;;;7.62;100.00
24858;BME280;12935;50.782;6.074;2024-03-02T07:32:41;98027.13;;;7.69;100.00
24858;BME280;12935;50.782;6.074;2024-03-02T07:35:11;98025.31;;;7.59;100.00
24858;BME280;12935;50.782;6.074;2024-03-02T07:37:36;98028.31;;;7.68;100.00
24858;BME280;12935;50.782;6.074;2024-03-02T07:40:01;98029.44;;;7.70;100.00
24858;BME280;12935;50.782;6.074;2024-03-02T07:42:27;98021.38;;;7.63;100.00
24858;BME280;12935;50.782;6.074;2024-03-02T07:44:54;98038.50;;;7.87;100.00
24858;BME280;12935;50.782;6.074;2024-03-02T07:47:19;98041.47;;;7.96;100.00
24858;BME280;12935;50.782;6.074;2024-03-02T07:49:45;98031.97;;;8.08;100.00
24858;BME280;12935;50.782;6.074;2024-03-02T07:52:11;98027.59;;;8.14;100.00
24858;BME280;12935;50.782;6.074;2024-03-02T07:54:36;98027.84;;;8.23;100.00
24858;BME280;12935;50.782;6.074;2024-03-02T07:57:02;98033.19;;;8.30;100.00
24858;BME280;12935;50.782;6.074;2024-03-02T07:59:28;98035.19;;;8.26;100.00
24858;BME280;12935;50.782;6.074;2024-03-02T08:01:53;98038.25;;;8.32;100.00
24858;BME280;12935;50.782;6.074;2024-03-02T08:04:20;98046.00;;;8.33;100.00
24858;BME280;12935;50.782;6.074;2024-03-02T08:06:45;98044.94;;;8.24;100.00
24858;BME280;12935;50.782;6.074;2024-03-02T08:09:11;98062.34;;;8.30;100.00
24858;BME280;12935;50.782;6.074;2024-03-02T08:11:36;98055.72;;;8.31;100.00
24858;BME280;12935;50.782;6.074;2024-03-02T08:14:02;98052.19;;;8.34;100.00
24858;BME280;12935;50.782;6.074;2024-03-02T08:16:28;98062.66;;;8.35;100.00
24858;BME280;12935;50.782;6.074;2024-03-02T08:18:54;98079.28;;;8.41;100.00
24858;BME280;12935;50.782;6.074;2024-03-02T08:21:19;98059.81;;;8.42;100.00
24858;BME280;12935;50.782;6.074;2024-03-02T08:23:45;98061.38;;;8.43;100.00
24858;BME280;12935;50.782;6.074;2024-03-02T08:26:11;98047.00;;;8.43;100.00
24858;BME280;12935;50.782;6.074;2024-03-02T08:28:36;98044.25;;;8.43;100.00
24858;BME280;12935;50.782;6.074;2024-03-02T08:31:03;98043.78;;;8.48;100.00
24858;BME280;12935;50.782;6.074;2024-03-02T08:33:28;98048.13;;;8.46;100.00
24858;BME280;12935;50.782;6.074;2024-03-02T08:35:54;98046.69;;;8.37;100.00
24858;BME280;12935;50.782;6.074;2024-03-02T08:38:19;98044.06;;;8.30;100.00
24858;BME280;12935;50.782;6.074;2024-03-02T08:40:45;98044.03;;;8.34;100.00
24858;BME280;12935;50.782;6.074;2024-03-02T08:43:10;98041.66;;;8.36;100.00
24858;BME280;12935;50.782;6.074;2024-03-02T08:45:36;98055.91;;;8.43;100.00
24858;BME280;12935;50.782;6.074;2024-03-02T08:48:03;98037.63;;;8.44;100.00
24858;BME280;12935;50.782;6.074;2024-03-02T08:50:28;98043.19;;;8.60;99.95
24858;BME280;12935;50.782;6.074;2024-03-02T08:52:53;98060.66;;;8.63;100.00
24858;BME280;12935;50.782;6.074;2024-03-02T08:55:18;98040.34;;;8.67;99.58
24858;BME280;12935;50.782;6.074;2024-03-02T08:57:44;98040.16;;;8.78;99.50
24858;BME280;12935;50.782;6.074;2024-03-02T09:00:10;98036.66;;;8.77;98.60
24858;BME280;12935;50.782;6.074;2024-03-02T09:02:35;98055.31;;;8.79;98.91
24858;BME280;12935;50.782;6.074;2024-03-02T09:05:01;98043.50;;;8.86;99.18
24858;BME280;12935;50.782;6.074;2024-03-02T09:07:26;98048.63;;;9.03;98.40
24858;BME280;12935;50.782;6.074;2024-03-02T09:09:51;98043.31;;;9.16;96.66
24858;BME280;12935;50.782;6.074;2024-03-02T09:12:17;98045.13;;;9.23;95.91
24858;BME280;12935;50.782;6.074;2024-03-02T09:14:43;98039.28;;;9.24;95.51
24858;BME280;12935;50.782;6.074;2024-03-02T09:17:08;98044.03;;;9.20;94.47
24858;BME280;12935;50.782;6.074;2024-03-02T09:19:35;98048.47;;;9.30;93.51
24858;BME280;12935;50.782;6.074;2024-03-02T09:22:01;98052.25;;;9.36;92.71
24858;BME280;12935;50.782;6.074;2024-03-02T09:24:28;98055.94;;;9.46;92.14
24858;BME280;12935;50.782;6.074;2024-03-02T09:26:53;98045.09;;;9.62;91.59
24858;BME280;12935;50.782;6.074;2024-03-02T09:29:19;98053.47;;;9.71;88.74
24858;BME280;12935;50.782;6.074;2024-03-02T09:31:45;98058.66;;;9.66;88.49
24858;BME280;12935;50.782;6.074;2024-03-02T09:34:12;98057.28;;;9.58;88.59
24858;BME280;12935;50.782;6.074;2024-03-02T09:36:37;98057.19;;;9.61;88.60
24858;BME280;12935;50.782;6.074;2024-03-02T09:39:02;98053.06;;;9.73;89.43
24858;BME280;12935;50.782;6.074;2024-03-02T09:41:29;98034.03;;;9.69;88.50
24858;BME280;12935;50.782;6.074;2024-03-02T09:43:55;98038.69;;;9.89;88.33
24858;BME280;12935;50.782;6.074;2024-03-02T09:46:20;98051.31;;;10.15;86.12
24858;BME280;12935;50.782;6.074;2024-03-02T09:48:46;98050.59;;;10.31;84.11
24858;BME280;12935;50.782;6.074;2024-03-02T09:51:11;98028.59;;;10.38;82.59
24858;BME280;12935;50.782;6.074;2024-03-02T09:53:36;98025.81;;;10.70;80.67
24858;BME280;12935;50.782;6.074;2024-03-02T09:56:02;98038.53;;;10.89;78.43
24858;BME280;12935;50.782;6.074;2024-03-02T09:58:28;98032.38;;;11.02;78.62
24858;BME280;12935;50.782;6.074;2024-03-02T10:00:53;98041.66;;;11.33;76.42
24858;BME280;12935;50.782;6.074;2024-03-02T10:03:19;98041.22;;;11.76;74.99
24858;BME280;12935;50.782;6.074;2024-03-02T10:05:44;98045.91;;;12.14;73.35
24858;BME280;12935;50.782;6.074;2024-03-02T10:08:10;98035.50;;;12.21;69.84
24858;BME280;12935;50.782;6.074;2024-03-02T10:10:37;98035.81;;;12.36;69.14
24858;BME280;12935;50.782;6.074;2024-03-02T10:13:07;98033.31;;;12.63;69.18
24858;BME280;12935;50.782;6.074;2024-03-02T10:15:33;98031.47;;;12.95;66.92
24858;BME280;12935;50.782;6.074;2024-03-02T10:17:59;98014.53;;;13.31;65.32
24858;BME280;12935;50.782;6.074;2024-03-02T10:20:25;98012.00;;;13.37;63.68
24858;BME280;12935;50.782;6.074;2024-03-02T10:22:51;98011.06;;;13.40;63.01
24858;BME280;12935;50.782;6.074;2024-03-02T10:25:30;98012.03;;;13.46;60.98
24858;BME280;12935;50.782;6.074;2024-03-02T10:27:59;98014.91;;;13.42;62.41
24858;BME280;12935;50.782;6.074;2024-03-02T10:30:28;98007.66;;;13.57;59.97
24858;BME280;12935;50.782;6.074;2024-03-02T10:32:54;98016.75;;;13.76;60.87
24858;BME280;12935;50.782;6.074;2024-03-02T10:35:21;98014.44;;;13.65;58.20
24858;BME280;12935;50.782;6.074;2024-03-02T10:37:47;98006.13;;;13.87;58.06
24858;BME280;12935;50.782;6.074;2024-03-02T10:40:13;98019.94;;;13.75;57.45
24858;BME280;12935;50.782;6.074;2024-03-02T10:42:40;98018.38;;;13.64;57.40
24858;BME280;12935;50.782;6.074;2024-03-02T10:45:08;98015.53;;;13.77;57.27
24858;BME280;12935;50.782;6.074;2024-03-02T10:47:36;97996.72;;;13.97;58.48
24858;BME280;12935;50.782;6.074;2024-03-02T10:50:04;98012.94;;;14.14;58.04
24858;BME280;12935;50.782;6.074;2024-03-02T10:52:36;98009.91;;;14.21;57.00
24858;BME280;12935;50.782;6.074;2024-03-02T10:55:02;98007.41;;;13.64;56.66
24858;BME280;12935;50.782;6.074;2024-03-02T10:57:53;98012.38;;;13.57;57.99
24858;BME280;12935;50.782;6.074;2024-03-02T11:00:19;98011.56;;;13.16;58.04
24858;BME280;12935;50.782;6.074;2024-03-02T11:02:51;98005.63;;;13.18;58.20
24858;BME280;12935;50.782;6.074;2024-03-02T11:05:44;98001.75;;;12.72;59.52
24858;BME280;12935;50.782;6.074;2024-03-02T11:08:13;97994.81;;;13.45;59.10
24858;BME280;12935;50.782;6.074;2024-03-02T11:13:12;98003.78;;;14.17;55.78
24858;BME280;12935;50.782;6.074;2024-03-02T11:15:39;97995.31;;;14.51;55.03
24858;BME280;12935;50.782;6.074;2024-03-02T11:18:06;97998.41;;;14.90;54.35
24858;BME280;12935;50.782;6.074;2024-03-02T11:20:36;97999.34;;;14.78;54.44
24858;BME280;12935;50.782;6.074;2024-03-02T11:23:08;98000.25;;;14.93;54.02
24858;BME280;12935;50.782;6.074;2024-03-02T11:25:33;97985.81;;;15.34;51.59
24858;BME280;12935;50.782;6.074;2024-03-02T11:28:00;97994.88;;;14.71;52.27
24858;BME280;12935;50.782;6.074;2024-03-02T11:33:01;97971.66;;;14.99;52.95
24858;BME280;12935;50.782;6.074;2024-03-02T11:35:33;97975.97;;;15.52;51.73
24858;BME280;12935;50.782;6.074;2024-03-02T11:38:01;97975.63;;;15.68;50.83
24858;BME280;12935;50.782;6.074;2024-03-02T11:40:27;97975.66;;;15.50;51.62
24858;BME280;12935;50.782;6.074;2024-03-02T11:42:52;97984.28;;;16.41;50.91
24858;BME280;12935;50.782;6.074;2024-03-02T11:45:28;97965.84;;;16.71;47.80
24858;BME280;12935;50.782;6.074;2024-03-02T11:47:54;97972.16;;;16.87;48.08
24858;BME280;12935;50.782;6.074;2024-03-02T11:50:40;97948.13;;;17.16;47.51
24858;BME280;12935;50.782;6.074;2024-03-02T11:53:06;97945.56;;;17.28;46.17
24858;BME280;12935;50.782;6.074;2024-03-02T11:55:34;97939.28;;;17.42;46.88
24858;BME280;12935;50.782;6.074;2024-03-02T11:58:02;97938.53;;;17.91;46.75
24858;BME280;12935;50.782;6.074;2024-03-02T12:00:27;97930.59;;;17.78;45.30
24858;BME280;12935;50.782;6.074;2024-03-02T12:03:09;97930.78;;;17.95;44.27
24858;BME280;12935;50.782;6.074;2024-03-02T12:05:35;97927.69;;;17.87;44.24
24858;BME280;12935;50.782;6.074;2024-03-02T12:08:03;97918.09;;;17.68;45.09
24858;BME280;12935;50.782;6.074;2024-03-02T12:10:29;97915.75;;;17.46;45.00
24858;BME280;12935;50.782;6.074;2024-03-02T12:13:02;97924.72;;;17.41;45.25
24858;BME280;12935;50.782;6.074;2024-03-02T12:15:30;97920.41;;;17.40;45.92
24858;BME280;12935;50.782;6.074;2024-03-02T12:17:56;97923.78;;;17.30;45.68
24858;BME280;12935;50.782;6.074;2024-03-02T12:20:23;97920.25;;;17.00;45.65
24858;BME280;12935;50.782;6.074;2024-03-02T12:22:53;97933.28;;;17.29;45.58
24858;BME280;12935;50.782;6.074;2024-03-02T12:25:19;97911.72;;;17.47;45.61
24858;BME280;12935;50.782;6.074;2024-03-02T12:27:46;97913.72;;;17.76;44.69
24858;BME280;12935;50.782;6.074;2024-03-02T12:30:12;97905.59;;;17.87;44.56
24858;BME280;12935;50.782;6.074;2024-03-02T12:32:40;97908.69;;;17.95;44.33
24858;BME280;12935;50.782;6.074;2024-03-02T12:35:05;97910.66;;;18.09;44.08
24858;BME280;12935;50.782;6.074;2024-03-02T12:37:31;97898.16;;;17.29;45.36
24858;BME280;12935;50.782;6.074;2024-03-02T12:39:56;97908.81;;;17.07;46.40
24858;BME280;12935;50.782;6.074;2024-03-02T12:42:21;97918.50;;;16.34;47.61
24858;BME280;12935;50.782;6.074;2024-03-02T12:44:48;97919.13;;;15.82;48.76
24858;BME280;12935;50.782;6.074;2024-03-02T12:47:13;97915.66;;;15.72;49.79
24858;BME280;12935;50.782;6.074;2024-03-02T12:49:42;97916.47;;;15.54;50.58
24858;BME280;12935;50.782;6.074;2024-03-02T12:52:07;97912.06;;;15.57;51.34
24858;BME280;12935;50.782;6.074;2024-03-02T12:54:33;97913.00;;;15.87;50.82
24858;BME280;12935;50.782;6.074;2024-03-02T12:56:58;97914.53;;;15.78;51.05
24858;BME280;12935;50.782;6.074;2024-03-02T12:59:24;97908.25;;;15.45;51.52
24858;BME280;12935;50.782;6.074;2024-03-02T13:01:55;97913.69;;;15.12;52.30
24858;BME280;12935;50.782;6.074;2024-03-02T13:04:24;97909.19;;;14.91;53.22
24858;BME280;12935;50.782;6.074;2024-03-02T13:06:51;97911.78;;;14.85;53.75
24858;BME280;12935;50.782;6.074;2024-03-02T13:09:17;97916.69;;;14.72;54.17
24858;BME280;12935;50.782;6.074;2024-03-02T13:11:42;97906.91;;;14.53;54.93